Time;durP1;ratioP1;P1;durP2;ratioP2;P2;SDS_P1;SDS_P2;PMS_P1;PMS_P2;Temp;Humidity;BMP_temperature;BMP_pressure;BME280_temperature;BME280_humidity;BME280_pressure;Samples;Min_cycle;Max_cycle;Signal;HPM_P1;HPM_P2
2022/11/06 00:01:24;;;;;;;1.00;0.70;;;;;;;23.50;48.87;100630.25;4538657;28;20425;-62
2022/11/06 00:03:35;;;;;;;1.40;0.80;;;;;;;23.45;48.88;100628.53;4537084;28;20718;-62
2022/11/06 00:08:24;;;;;;;2.03;0.60;;;;;;;23.46;48.67;100635.13;4536831;28;20060;-62
2022/11/06 00:10:35;;;;;;;1.60;0.70;;;;;;;23.50;48.71;100636.84;4536918;28;20087;-62
2022/11/06 00:12:45;;;;;;;1.35;0.70;;;;;;;23.41;48.77;100632.56;4538664;28;20049;-62
2022/11/06 00:14:55;;;;;;;1.77;0.60;;;;;;;23.41;48.87;100639.16;4538364;28;20138;-63
2022/11/06 00:17:06;;;;;;;1.27;0.70;;;;;;;23.43;48.84;100641.66;4539621;28;20040;-63
2022/11/06 00:19:16;;;;;;;0.68;0.60;;;;;;;23.39;48.85;100635.00;4539174;28;20076;-63
2022/11/06 00:21:28;;;;;;;1.80;0.70;;;;;;;23.42;48.64;100634.25;4537676;28;20029;-63
2022/11/06 00:23:40;;;;;;;1.25;0.70;;;;;;;23.45;48.83;100633.47;4537877;28;20045;-63
2022/11/06 00:25:55;;;;;;;1.40;0.80;;;;;;;23.42;49.02;100619.84;4525336;28;20199;-63
2022/11/06 00:28:06;;;;;;;1.60;0.60;;;;;;;23.42;48.92;100619.84;4536954;28;20049;-63
2022/11/06 00:30:19;;;;;;;2.10;0.70;;;;;;;23.44;48.67;100620.28;4538065;28;20045;-62
2022/11/06 00:32:29;;;;;;;1.70;0.70;;;;;;;23.44;48.63;100635.50;4537272;28;20099;-63
2022/11/06 00:34:40;;;;;;;1.88;0.80;;;;;;;23.40;48.61;100628.03;4537714;28;20059;-63
2022/11/06 00:36:50;;;;;;;0.80;0.63;;;;;;;23.10;49.30;100632.81;4537126;28;20037;-63
2022/11/06 00:39:02;;;;;;;2.35;1.90;;;;;;;21.54;32.26;100630.63;4536569;28;20494;-63
2022/11/06 00:41:16;;;;;;;2.42;1.98;;;;;;;21.31;32.07;100626.72;4538413;28;21089;-62
2022/11/06 00:43:26;;;;;;;2.33;1.83;;;;;;;21.22;32.32;100625.25;4538405;28;20041;-63
2022/11/06 00:45:37;;;;;;;2.22;1.98;;;;;;;21.16;32.64;100630.47;4538108;28;28058;-62
2022/11/06 00:47:47;;;;;;;2.78;2.10;;;;;;;21.13;33.10;100628.34;4539255;28;20037;-63
2022/11/06 00:49:58;;;;;;;2.28;1.85;;;;;;;21.10;32.86;100620.47;4536492;28;20135;-63
2022/11/06 00:52:08;;;;;;;2.70;1.92;;;;;;;21.08;33.05;100617.13;4537074;28;21011;-63
2022/11/06 00:54:19;;;;;;;2.67;2.00;;;;;;;21.07;33.40;100608.88;4536888;28;20037;-63
2022/11/06 00:56:30;;;;;;;3.05;1.92;;;;;;;21.06;33.34;100608.03;4536404;28;20033;-62
2022/11/06 00:58:41;;;;;;;2.67;1.80;;;;;;;21.05;33.63;100603.53;4537395;28;20064;-63
2022/11/06 01:00:51;;;;;;;2.22;1.80;;;;;;;21.04;33.82;100610.44;4536473;28;20046;-63
2022/11/06 01:03:02;;;;;;;2.40;1.60;;;;;;;21.05;33.63;100611.28;4537617;28;20032;-62
2022/11/06 01:05:13;;;;;;;2.20;1.98;;;;;;;21.01;33.64;100602.56;4537508;28;20048;-63
2022/11/06 01:07:24;;;;;;;2.05;1.60;;;;;;;21.04;33.58;100601.84;4537372;28;20710;-63
2022/11/06 01:09:34;;;;;;;2.58;1.63;;;;;;;21.02;33.89;100603.41;4535996;28;20298;-63
2022/11/06 01:11:50;;;;;;;2.13;1.60;;;;;;;21.03;33.74;100594.44;4552852;28;20115;-63
2022/11/06 01:14:03;;;;;;;2.03;1.77;;;;;;;21.02;33.81;100598.53;4538132;28;20033;-63
2022/11/06 01:16:14;;;;;;;1.67;1.50;;;;;;;21.01;33.91;100596.84;4536787;28;20025;-63
2022/11/06 01:18:25;;;;;;;2.03;1.50;;;;;;;21.03;34.08;100594.44;4536396;28;20033;-63
2022/11/06 01:20:36;;;;;;;2.70;1.50;;;;;;;21.04;34.08;100598.16;4539389;28;20052;-63
2022/11/06 01:22:46;;;;;;;1.92;1.50;;;;;;;21.03;33.97;100597.31;4537710;28;20497;-62
2022/11/06 01:24:57;;;;;;;2.38;1.42;;;;;;;21.02;33.82;100595.66;4537941;28;21758;-63
2022/11/06 01:27:08;;;;;;;1.83;1.63;;;;;;;21.01;34.15;100602.56;4537273;28;20135;-63
2022/11/06 01:29:19;;;;;;;2.40;1.50;;;;;;;21.00;34.21;100600.91;4537093;28;20047;-63
2022/11/06 01:31:31;;;;;;;1.77;1.60;;;;;;;21.03;34.16;100599.34;4536635;28;20041;-63
2022/11/06 01:33:42;;;;;;;1.73;1.30;;;;;;;21.02;34.31;100600.56;4537216;28;20067;-63
2022/11/06 01:35:52;;;;;;;1.83;1.42;;;;;;;21.02;33.98;100606.28;4524326;28;20028;-63
2022/11/06 01:38:03;;;;;;;2.40;1.50;;;;;;;21.03;34.10;100605.06;4538185;28;20033;-63
2022/11/06 01:40:13;;;;;;;1.60;1.30;;;;;;;21.02;34.21;100597.69;4537181;28;20633;-63
2022/11/06 01:42:24;;;;;;;1.80;1.27;;;;;;;21.03;34.53;100611.66;4537879;28;20033;-63
2022/11/06 01:44:34;;;;;;;2.20;1.30;;;;;;;21.02;34.32;100601.41;4537502;28;20588;-63
2022/11/06 01:46:44;;;;;;;2.42;1.40;;;;;;;21.02;34.58;100591.94;4537095;28;20029;-62
2022/11/06 01:49:04;;;;;;;1.55;1.30;;;;;;;21.02;34.50;100591.94;4536966;28;20412;-63
2022/11/06 01:51:15;;;;;;;1.20;1.10;;;;;;;21.02;34.55;100598.53;4524981;28;20041;-63
2022/11/06 01:53:26;;;;;;;1.85;1.35;;;;;;;21.02;34.56;100600.56;4537602;28;20035;-62
2022/11/06 01:55:44;;;;;;;1.65;1.30;;;;;;;21.01;34.52;100588.22;4536497;28;20033;-63
2022/11/06 01:57:56;;;;;;;2.10;1.48;;;;;;;21.00;34.32;100588.59;4536497;28;20642;-63
2022/11/06 02:00:07;;;;;;;2.40;1.50;;;;;;;21.01;34.73;100581.69;4536739;28;20033;-63
2022/11/06 02:02:18;;;;;;;2.08;1.50;;;;;;;21.01;34.68;100573.06;4537350;28;20044;-63
2022/11/06 02:04:36;;;;;;;2.58;1.40;;;;;;;21.01;34.47;100573.06;4537425;28;20040;-63
2022/11/06 02:06:47;;;;;;;2.35;1.30;;;;;;;21.00;34.85;100560.75;4536329;28;20380;-62
2022/11/06 02:08:58;;;;;;;1.80;1.30;;;;;;;21.01;34.79;100571.00;4536906;28;20133;-63
2022/11/06 02:11:08;;;;;;;1.67;1.30;;;;;;;21.00;34.48;100563.63;4537296;28;20460;-63
2022/11/06 02:13:19;;;;;;;1.23;1.05;;;;;;;20.99;34.30;100561.97;4537279;28;20037;-63
2022/11/06 02:15:48;;;;;;;1.40;0.95;;;;;;;21.00;34.61;100557.03;4537867;28;20116;-62
2022/11/06 02:18:17;;;;;;;2.20;1.23;;;;;;;20.98;34.78;100560.28;4524300;28;20115;-63
2022/11/06 02:20:34;;;;;;;1.00;0.90;;;;;;;20.99;34.79;100553.34;4535431;28;20041;-63
2022/11/06 02:22:47;;;;;;;2.33;1.17;;;;;;;21.00;34.95;100554.16;4536585;28;20045;-63
2022/11/06 02:25:22;;;;;;;1.45;1.00;;;;;;;20.99;34.80;100541.88;4535731;28;20561;-62
2022/11/06 02:27:34;;;;;;;2.22;1.20;;;;;;;20.97;34.58;100532.81;4537845;28;20474;-63
2022/11/06 02:29:59;;;;;;;1.80;1.15;;;;;;;20.98;34.62;100528.72;4538710;28;20115;-63
2022/11/06 02:32:16;;;;;;;1.70;1.10;;;;;;;20.98;34.49;100531.59;4539295;28;20282;-63
2022/11/06 02:34:28;;;;;;;1.55;1.05;;;;;;;20.98;34.03;100522.16;4539852;28;20033;-62
2022/11/06 02:36:46;;;;;;;1.25;0.98;;;;;;;20.98;34.30;100533.66;4540533;28;20048;-62
2022/11/06 02:39:02;;;;;;;1.35;1.00;;;;;;;20.97;34.07;100526.22;4538599;28;20025;-63
2022/11/06 02:41:19;;;;;;;2.10;1.10;;;;;;;20.97;34.05;100521.31;4540486;28;20036;-63
2022/11/06 02:43:36;;;;;;;1.55;1.00;;;;;;;20.96;34.15;100519.66;4522595;28;20572;-63
2022/11/06 02:45:52;;;;;;;1.67;1.10;;;;;;;20.91;33.93;100510.47;4540032;28;20064;-62
2022/11/06 02:48:07;;;;;;;1.25;1.08;;;;;;;20.90;33.97;100508.81;4527335;28;20036;-62
2022/11/06 02:50:25;;;;;;;1.17;0.85;;;;;;;20.95;33.79;100520.81;4539436;28;20147;-63
2022/11/06 02:52:42;;;;;;;2.15;1.08;;;;;;;20.94;33.87;100518.31;4539395;28;20037;-62
2022/11/06 02:55:08;;;;;;;1.17;1.00;;;;;;;20.96;33.86;100524.53;4539742;28;20037;-62
2022/11/06 02:57:21;;;;;;;1.58;1.00;;;;;;;20.87;33.85;100507.50;4539089;28;20033;-63
2022/11/06 03:00:03;;;;;;;1.48;1.00;;;;;;;20.95;33.89;100523.69;4540475;28;20036;-64
2022/11/06 03:02:27;;;;;;;1.30;1.00;;;;;;;20.94;33.62;100524.91;4538151;28;20650;-63
2022/11/06 03:04:52;;;;;;;1.67;1.10;;;;;;;20.93;33.75;100517.47;4539355;28;20660;-63
2022/11/06 03:07:16;;;;;;;1.33;1.10;;;;;;;20.94;33.52;100524.06;4539179;28;20509;-63
2022/11/06 03:09:31;;;;;;;1.92;1.17;;;;;;;20.94;33.61;100516.31;4539606;28;20033;-63
2022/11/06 03:11:42;;;;;;;1.77;1.17;;;;;;;20.94;33.79;100518.31;4538236;28;20111;-63
2022/11/06 03:14:01;;;;;;;1.52;1.10;;;;;;;20.93;33.76;100519.53;4538126;28;20033;-63
2022/11/06 03:16:24;;;;;;;1.20;1.00;;;;;;;20.92;33.75;100518.69;4540526;28;20037;-63
2022/11/06 03:18:45;;;;;;;2.05;1.20;;;;;;;20.92;33.36;100510.09;4539489;28;20036;-63
2022/11/06 03:21:21;;;;;;;1.52;1.23;;;;;;;20.90;33.42;100511.69;4541599;28;20605;-63
2022/11/06 03:23:40;;;;;;;1.38;1.10;;;;;;;20.92;33.47;100514.97;4538149;28;20366;-63
2022/11/06 03:25:58;;;;;;;1.80;1.00;;;;;;;20.91;33.64;100517.03;4540809;28;20164;-63
2022/11/06 03:28:33;;;;;;;1.83;1.20;;;;;;;20.91;33.63;100522.78;4539808;28;20033;-63
2022/11/06 03:30:58;;;;;;;1.50;1.23;;;;;;;20.90;33.64;100523.97;4538665;28;20044;-63
2022/11/06 03:33:15;;;;;;;1.15;1.05;;;;;;;20.90;33.56;100515.34;4538870;28;20037;-63
2022/11/06 03:35:32;;;;;;;1.20;1.00;;;;;;;20.90;33.75;100529.69;4537070;28;20566;-63
2022/11/06 03:37:52;;;;;;;1.27;0.90;;;;;;;20.91;33.71;100524.81;4537570;28;20033;-63
2022/11/06 03:40:10;;;;;;;1.13;1.00;;;;;;;20.90;33.46;100517.41;4538023;28;20036;-63
2022/11/06 03:42:25;;;;;;;1.50;0.90;;;;;;;20.81;33.76;100500.38;4537496;28;20808;-63
2022/11/06 03:44:40;;;;;;;1.75;1.17;;;;;;;20.89;33.46;100507.97;4537296;28;20783;-63
2022/11/06 03:46:58;;;;;;;1.40;1.10;;;;;;;20.88;33.89;100506.31;4536642;28;20034;-63
2022/11/06 03:49:14;;;;;;;1.30;0.90;;;;;;;20.89;33.63;100495.66;4538521;28;20037;-63
2022/11/06 03:51:32;;;;;;;1.13;1.00;;;;;;;20.83;33.69;100492.25;4538651;28;20505;-62
2022/11/06 03:53:51;;;;;;;1.38;0.90;;;;;;;20.87;33.59;100498.88;4539139;28;20120;-63
2022/11/06 03:56:25;;;;;;;1.02;0.90;;;;;;;20.87;33.53;100504.63;4538377;28;20577;-63
2022/11/06 03:58:39;;;;;;;1.30;1.00;;;;;;;20.87;33.42;100501.75;4529399;28;20037;-62
2022/11/06 04:00:51;;;;;;;2.45;1.00;;;;;;;20.87;33.52;100504.63;4539204;28;20029;-63
2022/11/06 04:03:08;;;;;;;1.40;0.95;;;;;;;20.86;33.71;100502.13;4536421;28;20049;-63
2022/11/06 04:05:23;;;;;;;1.92;1.00;;;;;;;20.74;33.40;100485.84;4538495;28;20531;-63
2022/11/06 04:07:37;;;;;;;2.05;0.90;;;;;;;20.78;33.60;100495.38;4537713;28;20114;-63
2022/11/06 04:14:57;;;;;;;1.30;0.90;;;;;;;20.85;33.55;100507.06;4536392;28;20068;-63
2022/11/06 04:17:11;;;;;;;1.30;1.00;;;;;;;20.84;33.83;100499.63;4536584;28;20060;-64
2022/11/06 04:19:22;;;;;;;1.67;0.90;;;;;;;20.83;33.58;100495.13;4537013;28;20032;-63
2022/11/06 04:21:55;;;;;;;1.50;0.90;;;;;;;20.85;33.68;100494.75;4535914;28;20524;-64
2022/11/06 04:27:47;;;;;;;1.10;0.90;;;;;;;20.83;33.95;100485.66;4503949;28;20042;-63
2022/11/06 04:30:11;;;;;;;1.88;1.00;;;;;;;20.83;33.81;100488.53;4534222;28;20058;-63
2022/11/06 04:32:30;;;;;;;1.67;1.00;;;;;;;20.82;34.09;100496.31;4537587;28;20041;-63
2022/11/06 04:34:51;;;;;;;1.10;0.80;;;;;;;20.82;33.97;100501.22;4538323;28;20618;-63
2022/11/06 04:37:14;;;;;;;2.10;0.90;;;;;;;20.82;33.77;100502.03;4537651;28;20128;-63
2022/11/06 04:39:36;;;;;;;1.33;0.80;;;;;;;20.82;34.01;100504.91;4539009;28;20037;-62
2022/11/06 04:42:08;;;;;;;1.60;1.10;;;;;;;20.81;33.89;100494.66;4536836;28;20025;-63
2022/11/06 04:44:32;;;;;;;1.30;0.95;;;;;;;20.80;33.84;100499.53;4537764;28;20579;-62
2022/11/06 04:46:51;;;;;;;1.00;0.90;;;;;;;20.80;34.13;100504.47;4539739;28;20036;-64
2022/11/06 04:49:04;;;;;;;0.80;0.80;;;;;;;20.80;33.82;100504.47;4537943;28;20125;-63
2022/11/06 04:51:20;;;;;;;1.23;0.80;;;;;;;20.79;34.10;100503.63;4535541;28;20091;-63
2022/11/06 04:53:33;;;;;;;1.25;0.90;;;;;;;20.79;33.82;100497.03;4537753;28;20707;-63
2022/11/06 04:55:54;;;;;;;1.10;0.90;;;;;;;20.79;33.94;100492.16;4537490;28;20922;-63
2022/11/06 04:58:05;;;;;;;1.23;0.90;;;;;;;20.71;34.33;100478.00;4538962;28;20043;-63
2022/11/06 05:00:16;;;;;;;1.40;0.90;;;;;;;20.77;34.06;100482.25;4537942;28;20044;-63
2022/11/06 05:02:26;;;;;;;1.35;1.00;;;;;;;20.78;34.15;100483.91;4536530;28;20036;-63
2022/11/06 05:04:37;;;;;;;1.17;0.90;;;;;;;20.78;34.19;100489.66;4535920;28;20040;-63
2022/11/06 05:06:47;;;;;;;1.20;0.90;;;;;;;20.76;34.22;100492.91;4537267;28;20041;-63
2022/11/06 05:08:58;;;;;;;1.65;0.80;;;;;;;20.76;34.24;100492.06;4536714;28;20417;-64
2022/11/06 05:11:08;;;;;;;1.15;0.77;;;;;;;20.74;34.21;100485.84;4537664;28;20052;-63
2022/11/06 05:13:19;;;;;;;1.40;0.90;;;;;;;20.76;34.30;100477.72;4536297;28;20044;-63
2022/11/06 05:15:29;;;;;;;1.10;0.70;;;;;;;20.76;34.08;100475.69;4536643;28;20033;-63
2022/11/06 05:17:39;;;;;;;1.25;0.80;;;;;;;20.76;34.01;100477.72;4535613;28;20568;-63
2022/11/06 05:19:50;;;;;;;1.50;0.90;;;;;;;20.75;34.17;100467.47;4536539;28;20037;-63
2022/11/06 05:24:29;;;;;;;1.38;0.77;;;;;;;20.74;34.04;100465.78;4538665;28;20564;-63
2022/11/06 05:26:39;;;;;;;1.33;0.80;;;;;;;20.73;34.04;100462.09;4537730;28;20037;-63
2022/11/06 05:28:50;;;;;;;1.95;0.90;;;;;;;20.73;33.93;100455.50;4536703;28;20020;-63
2022/11/06 05:31:00;;;;;;;1.73;0.90;;;;;;;20.73;34.11;100459.22;4537090;28;20033;-63
2022/11/06 05:33:11;;;;;;;1.92;1.05;;;;;;;20.70;34.14;100442.75;4537673;28;20500;-63
2022/11/06 05:35:21;;;;;;;1.42;1.13;;;;;;;20.67;34.26;100436.94;4537442;28;20033;-63
2022/11/06 05:37:32;;;;;;;1.92;0.85;;;;;;;20.73;34.06;100441.16;4526715;28;20172;-63
2022/11/06 05:39:42;;;;;;;0.93;0.75;;;;;;;20.72;34.18;100439.53;4537374;28;20458;-63
2022/11/06 05:41:52;;;;;;;1.35;0.80;;;;;;;20.72;34.34;100433.78;4537196;28;20033;-63
2022/11/06 05:44:03;;;;;;;2.22;0.88;;;;;;;20.72;34.33;100436.66;4536415;28;21240;-63
2022/11/06 05:46:13;;;;;;;1.25;0.88;;;;;;;20.72;34.47;100442.38;4537810;28;20947;-63
2022/11/06 05:48:24;;;;;;;0.95;0.70;;;;;;;20.72;34.37;100448.13;4537246;28;20608;-63
2022/11/06 05:50:34;;;;;;;1.00;0.90;;;;;;;20.71;34.57;100438.69;4537428;28;20043;-63
2022/11/06 05:52:47;;;;;;;1.73;0.95;;;;;;;20.70;34.38;100433.31;4537234;28;20037;-64
2022/11/06 05:54:57;;;;;;;1.27;0.80;;;;;;;20.71;34.58;100432.09;4539205;28;20286;-63
2022/11/06 05:57:08;;;;;;;1.20;0.80;;;;;;;20.70;34.40;100424.72;4535481;28;20041;-63
2022/11/06 05:59:18;;;;;;;1.02;0.80;;;;;;;20.69;34.26;100426.75;4534890;28;20032;-64
2022/11/06 06:01:29;;;;;;;1.13;0.90;;;;;;;20.69;34.27;100418.13;4535355;28;20029;-63
2022/11/06 06:03:39;;;;;;;1.00;0.77;;;;;;;20.70;34.35;100424.72;4535089;28;20172;-63
2022/11/06 06:05:50;;;;;;;1.42;0.80;;;;;;;20.69;34.27;100423.06;4540521;28;20040;-63
2022/11/06 06:08:01;;;;;;;1.45;0.90;;;;;;;20.69;34.25;100428.78;4538133;28;20033;-63
2022/11/06 06:10:11;;;;;;;1.13;0.80;;;;;;;20.68;34.42;100422.22;4540724;28;20405;-63
2022/11/06 06:12:25;;;;;;;1.25;1.00;;;;;;;20.66;34.37;100416.00;4526058;28;20049;-63
2022/11/06 06:14:35;;;;;;;1.48;1.15;;;;;;;20.68;34.20;100421.38;4540475;28;20029;-63
2022/11/06 06:16:46;;;;;;;1.00;0.90;;;;;;;20.55;34.25;100399.78;4539377;28;20030;-63
2022/11/06 06:18:56;;;;;;;1.00;0.70;;;;;;;20.58;34.24;100402.69;4538808;28;20034;-63
2022/11/06 06:21:07;;;;;;;1.65;1.10;;;;;;;20.68;34.34;100424.25;4539104;28;20040;-62
2022/11/06 06:23:17;;;;;;;1.48;0.95;;;;;;;20.67;34.07;100417.69;4538269;28;20068;-63
2022/11/06 06:25:29;;;;;;;1.10;0.90;;;;;;;20.67;34.33;100414.00;4538460;28;20059;-63
2022/11/06 06:27:40;;;;;;;1.25;0.82;;;;;;;20.66;34.14;100412.34;4540541;28;20146;-64
2022/11/06 06:29:50;;;;;;;1.00;0.80;;;;;;;20.65;33.97;100411.50;4538530;28;20196;-63
2022/11/06 06:32:00;;;;;;;1.17;1.02;;;;;;;20.66;34.44;100403.72;4539628;28;20667;-63
2022/11/06 06:34:11;;;;;;;1.17;0.70;;;;;;;20.65;34.24;100404.91;4538020;28;20112;-63
2022/11/06 06:36:21;;;;;;;0.98;0.73;;;;;;;20.66;34.30;100406.59;4537536;28;20033;-63
2022/11/06 06:38:32;;;;;;;0.88;0.70;;;;;;;20.64;33.96;100418.41;4537904;28;20029;-63
2022/11/06 06:40:42;;;;;;;0.98;0.90;;;;;;;20.66;34.12;100420.94;4538086;28;20029;-63
2022/11/06 06:42:57;;;;;;;1.00;0.80;;;;;;;20.63;34.11;100415.91;4538013;28;20152;-63
2022/11/06 06:45:07;;;;;;;1.15;0.90;;;;;;;20.64;34.26;100420.47;4539629;28;20204;-64
2022/11/06 06:47:18;;;;;;;1.13;0.77;;;;;;;20.65;34.29;100416.38;4540576;28;20043;-64
2022/11/06 06:49:28;;;;;;;1.15;0.80;;;;;;;20.65;34.14;100419.25;4538895;28;20568;-63
2022/11/06 06:51:39;;;;;;;1.63;0.90;;;;;;;20.64;33.97;100420.47;4540921;28;20064;-64
2022/11/06 06:53:49;;;;;;;1.45;0.85;;;;;;;20.62;33.82;100417.13;4538281;28;20036;-63
2022/11/06 06:56:01;;;;;;;1.00;0.75;;;;;;;20.64;33.93;100421.28;4538879;28;20037;-64
2022/11/06 06:58:11;;;;;;;0.93;0.80;;;;;;;20.61;34.25;100419.16;4539047;28;20067;-64
2022/11/06 07:00:21;;;;;;;1.48;0.98;;;;;;;20.62;34.20;100417.97;4539998;28;20397;-64
2022/11/06 07:02:32;;;;;;;1.20;0.95;;;;;;;20.61;33.84;100415.47;4537967;28;20043;-63
2022/11/06 07:04:42;;;;;;;1.17;0.75;;;;;;;20.61;33.87;100416.28;4539407;28;20041;-64
2022/11/06 07:06:53;;;;;;;1.23;0.90;;;;;;;20.55;34.09;100405.50;4538232;28;20039;-63
2022/11/06 07:09:04;;;;;;;0.95;0.70;;;;;;;20.61;33.95;100418.34;4539290;28;20033;-64
2022/11/06 07:11:14;;;;;;;1.45;0.80;;;;;;;20.60;34.11;100413.78;4537766;28;20449;-64
2022/11/06 07:13:25;;;;;;;1.70;0.88;;;;;;;20.60;33.91;100414.63;4538179;28;20017;-63
2022/11/06 07:15:35;;;;;;;0.85;0.70;;;;;;;20.60;34.11;100419.53;4539317;28;20068;-64
2022/11/06 07:17:46;;;;;;;1.15;0.73;;;;;;;20.59;33.93;100415.00;4536918;28;20038;-63
2022/11/06 07:19:56;;;;;;;1.05;0.70;;;;;;;20.60;33.91;100428.13;4537246;28;20096;-63
2022/11/06 07:22:07;;;;;;;1.20;0.80;;;;;;;20.59;33.71;100417.88;4537990;28;20095;-63
2022/11/06 07:24:17;;;;;;;0.93;0.77;;;;;;;20.60;34.08;100431.00;4539356;28;20061;-63
2022/11/06 07:26:28;;;;;;;1.30;0.95;;;;;;;20.47;34.03;100392.19;4538176;28;20048;-63
2022/11/06 07:28:38;;;;;;;1.30;0.90;;;;;;;20.59;34.09;100417.88;4538810;28;20037;-63
2022/11/06 07:30:49;;;;;;;1.55;0.80;;;;;;;20.59;34.19;100407.25;4537803;28;20044;-63
2022/11/06 07:33:01;;;;;;;1.35;0.80;;;;;;;20.58;33.99;100408.44;4538283;28;20096;-63
2022/11/06 07:35:11;;;;;;;1.15;0.80;;;;;;;20.58;34.07;100408.44;4539487;28;20219;-63
2022/11/06 07:37:22;;;;;;;1.63;1.02;;;;;;;20.59;34.05;100412.16;4538237;28;20064;-63
2022/11/06 07:39:33;;;;;;;1.25;0.82;;;;;;;20.58;34.22;100408.44;4540226;28;20029;-63
2022/11/06 07:41:43;;;;;;;0.77;0.70;;;;;;;20.57;34.45;100403.06;4539830;28;20064;-63
2022/11/06 07:43:54;;;;;;;1.70;0.80;;;;;;;20.57;34.46;100405.94;4537695;28;20111;-63
2022/11/06 07:46:06;;;;;;;2.03;0.90;;;;;;;20.57;34.39;100415.38;4539030;28;20036;-63
2022/11/06 07:48:17;;;;;;;1.35;0.80;;;;;;;20.55;34.37;100411.25;4537698;28;20557;-62
2022/11/06 07:50:28;;;;;;;1.38;0.60;;;;;;;20.56;34.34;100405.13;4537964;28;20033;-63
2022/11/06 07:52:38;;;;;;;1.10;0.70;;;;;;;20.57;34.22;100414.53;4536810;28;20025;-63
2022/11/06 07:54:49;;;;;;;0.95;0.57;;;;;;;20.56;34.20;100410.88;4539628;28;20500;-63
2022/11/06 07:57:00;;;;;;;0.90;0.70;;;;;;;20.57;34.46;100426.00;4538852;28;20033;-63
2022/11/06 07:59:10;;;;;;;0.82;0.63;;;;;;;20.56;34.21;100412.88;4536685;28;20073;-64
2022/11/06 08:01:20;;;;;;;1.20;0.80;;;;;;;20.57;34.26;100414.53;4536689;28;20033;-63
2022/11/06 08:03:31;;;;;;;1.20;0.70;;;;;;;20.57;34.34;100408.81;4538607;28;20037;-63
2022/11/06 08:05:42;;;;;;;1.05;0.65;;;;;;;20.55;34.10;100406.31;4538784;28;20042;-64
2022/11/06 08:07:55;;;;;;;1.35;0.73;;;;;;;20.55;34.16;100412.06;4521840;28;20029;-63
2022/11/06 08:10:06;;;;;;;1.33;0.70;;;;;;;20.55;34.35;100411.25;4537035;28;20048;-63
2022/11/06 08:12:16;;;;;;;0.88;0.70;;;;;;;20.55;33.83;100408.38;4539443;28;20033;-63
2022/11/06 08:14:27;;;;;;;0.82;0.60;;;;;;;20.56;34.39;100412.88;4537660;28;20145;-63
2022/11/06 08:16:37;;;;;;;0.75;0.70;;;;;;;20.56;34.09;100412.88;4537917;28;20520;-63
2022/11/06 08:18:50;;;;;;;1.42;0.85;;;;;;;20.55;34.29;100425.56;4537523;28;20788;-63
2022/11/06 08:21:02;;;;;;;0.70;0.60;;;;;;;20.52;34.11;100430.00;4538324;28;20060;-63
2022/11/06 08:23:13;;;;;;;0.80;0.50;;;;;;;20.55;34.13;100428.44;4537954;28;20037;-65
2022/11/06 08:25:23;;;;;;;1.40;0.60;;;;;;;20.51;34.29;100410.31;4538722;28;20493;-64
2022/11/06 08:27:33;;;;;;;1.05;0.70;;;;;;;20.53;34.27;100402.16;4539473;28;20087;-63
2022/11/06 08:29:44;;;;;;;0.88;0.70;;;;;;;20.56;33.86;100401.41;4538653;28;20542;-64
2022/11/06 08:31:54;;;;;;;0.88;0.70;;;;;;;20.55;33.88;100411.25;4539662;28;20033;-64
2022/11/06 08:34:05;;;;;;;0.98;0.60;;;;;;;20.55;34.16;100399.78;4539738;28;20042;-64
2022/11/06 08:36:16;;;;;;;0.70;0.50;;;;;;;20.55;34.31;100419.84;4539209;28;20490;-64
2022/11/06 08:38:27;;;;;;;0.93;0.50;;;;;;;20.55;33.94;100406.31;4537604;28;20040;-63
2022/11/06 08:40:38;;;;;;;0.80;0.80;;;;;;;20.55;34.15;100399.78;4537631;28;20045;-63
2022/11/06 08:42:48;;;;;;;1.15;0.80;;;;;;;20.54;34.35;100393.19;4537704;28;20100;-64
2022/11/06 08:44:59;;;;;;;1.08;0.70;;;;;;;20.54;34.31;100398.94;4537632;28;20033;-64
2022/11/06 08:47:09;;;;;;;1.13;0.65;;;;;;;20.47;34.33;100377.84;4538495;28;20033;-63
2022/11/06 08:49:19;;;;;;;0.60;0.50;;;;;;;20.54;34.25;100392.34;4538359;28;20068;-65
2022/11/06 08:51:30;;;;;;;0.52;0.52;;;;;;;20.54;34.27;100390.31;4536489;28;20080;-64
2022/11/06 08:53:40;;;;;;;0.50;0.50;;;;;;;20.54;34.54;100386.63;4538621;28;20060;-64
2022/11/06 08:55:51;;;;;;;1.50;0.73;;;;;;;20.54;34.25;100386.63;4538325;28;20036;-64
2022/11/06 08:58:02;;;;;;;0.93;0.70;;;;;;;20.54;34.40;100384.59;4536821;28;20044;-64
2022/11/06 09:00:14;;;;;;;1.13;0.60;;;;;;;20.53;34.62;100376.38;4536375;28;20029;-64
2022/11/06 09:02:25;;;;;;;0.68;0.60;;;;;;;20.52;34.28;100366.91;4535338;28;20048;-64
2022/11/06 09:04:35;;;;;;;1.50;0.70;;;;;;;20.48;34.50;100348.81;4537031;28;20049;-64
2022/11/06 09:06:46;;;;;;;0.95;0.70;;;;;;;20.54;34.64;100355.06;4536837;28;20166;-63
2022/11/06 09:08:56;;;;;;;1.77;0.60;;;;;;;20.54;34.67;100360.81;4537969;28;20589;-63
2022/11/06 09:11:07;;;;;;;1.05;0.60;;;;;;;20.54;34.82;100357.94;4538623;28;20037;-64
2022/11/06 09:13:17;;;;;;;0.88;0.50;;;;;;;20.54;34.50;100363.69;4536509;28;20025;-62
2022/11/06 09:15:27;;;;;;;0.82;0.70;;;;;;;20.54;35.05;100357.94;4538403;28;20561;-64
2022/11/06 09:17:45;;;;;;;1.10;0.60;;;;;;;20.55;34.81;100353.91;4537417;28;20033;-65
2022/11/06 09:19:56;;;;;;;0.73;0.60;;;;;;;20.55;34.71;100359.63;4538157;28;20039;-63
2022/11/06 09:22:07;;;;;;;1.08;0.60;;;;;;;20.55;34.77;100359.63;4538356;28;21409;-63
2022/11/06 09:24:17;;;;;;;0.50;0.50;;;;;;;20.55;34.89;100360.44;4536777;28;20052;-63
2022/11/06 09:26:28;;;;;;;1.13;0.57;;;;;;;20.56;34.95;100361.28;4536705;28;20044;-63
2022/11/06 09:28:38;;;;;;;1.58;0.60;;;;;;;20.56;34.88;100355.53;4538207;28;20144;-64
2022/11/06 09:30:49;;;;;;;1.25;0.60;;;;;;;20.56;34.75;100344.06;4537878;28;20120;-64
2022/11/06 09:33:01;;;;;;;1.20;0.63;;;;;;;20.55;34.86;100348.97;4537690;28;20059;-64
2022/11/06 09:35:11;;;;;;;1.35;0.70;;;;;;;20.55;34.85;100348.16;4537495;28;20596;-63
2022/11/06 09:37:21;;;;;;;1.08;0.52;;;;;;;20.55;34.96;100346.09;4537777;28;20041;-64
2022/11/06 09:39:32;;;;;;;0.82;0.73;;;;;;;20.55;34.95;100345.28;4538769;28;20135;-64
2022/11/06 09:42:05;;;;;;;0.85;0.52;;;;;;;20.55;34.75;100339.56;4541535;28;20041;-64
2022/11/06 09:44:40;;;;;;;0.68;0.60;;;;;;;20.56;34.60;100356.38;4539964;28;20049;-63
2022/11/06 09:46:52;;;;;;;0.60;0.60;;;;;;;20.55;34.86;100345.28;4541920;28;20040;-64
2022/11/06 09:49:20;;;;;;;0.60;0.50;;;;;;;20.55;34.93;100351.84;4523089;28;20806;-65
2022/11/06 09:51:43;;;;;;;0.75;0.70;;;;;;;20.56;35.17;100344.06;4540070;28;20321;-64
2022/11/06 09:53:58;;;;;;;0.73;0.60;;;;;;;20.56;35.09;100344.06;4541108;28;20037;-64
2022/11/06 09:56:11;;;;;;;0.75;0.63;;;;;;;20.56;34.88;100336.31;4538716;28;20513;-64
2022/11/06 09:58:42;;;;;;;1.20;0.60;;;;;;;20.56;35.30;100329.75;4539383;28;21157;-64
2022/11/06 10:00:53;;;;;;;0.75;0.50;;;;;;;20.60;35.03;100324.91;4540386;28;20033;-64
2022/11/06 10:03:13;;;;;;;0.93;0.50;;;;;;;20.67;34.92;100343.13;4541017;28;20720;-64
2022/11/06 10:05:29;;;;;;;0.95;0.60;;;;;;;20.73;34.54;100335.06;4541340;28;20040;-64
2022/11/06 10:07:41;;;;;;;1.45;0.60;;;;;;;20.78;34.76;100324.13;4540335;28;20036;-63
2022/11/06 10:09:52;;;;;;;0.50;0.45;;;;;;;20.74;34.59;100316.63;4541949;28;20029;-64
2022/11/06 10:12:21;;;;;;;0.73;0.50;;;;;;;20.77;34.74;100322.44;4523241;28;20562;-64
2022/11/06 10:14:55;;;;;;;0.85;0.52;;;;;;;20.82;34.35;100329.13;4540467;28;20048;-64
2022/11/06 10:17:29;;;;;;;0.85;0.60;;;;;;;20.80;34.35;100326.63;4541170;28;20091;-63
2022/11/06 10:19:54;;;;;;;1.15;0.70;;;;;;;20.84;34.29;100313.19;4539437;28;20045;-63
2022/11/06 10:22:16;;;;;;;1.05;0.75;;;;;;;20.82;34.03;100306.97;4541404;28;20041;-63
2022/11/06 10:24:33;;;;;;;1.00;0.50;;;;;;;20.83;34.03;100307.81;4555299;28;20048;-63
2022/11/06 10:26:55;;;;;;;1.00;0.52;;;;;;;20.73;34.01;100286.28;4539666;28;20118;-63
2022/11/06 10:29:14;;;;;;;0.68;0.60;;;;;;;20.85;34.16;100303.38;4540874;28;20528;-62
2022/11/06 10:31:53;;;;;;;0.52;0.43;;;;;;;20.83;34.15;100294.31;4536717;28;20045;-62
2022/11/06 10:34:16;;;;;;;0.98;0.80;;;;;;;20.88;34.36;100298.91;4537722;28;20827;-61
2022/11/06 10:36:39;;;;;;;0.82;0.50;;;;;;;20.88;34.44;100296.06;4540670;28;20025;-62